HK5206G SKMD-SKMD
Flight info
| Callsign | HK5206G |
|---|---|
| Flight time | N/A |
| Altitude | 9500 |
| Route | BELLO1A GUARNE1C BELLO1C |
| Aircraft | SIRA/L-SDFGIRY/LB1 |
Departure
| Time | 2026-05-01 15:28 |
|---|---|
| Airport | Enrique Olaya Herrera Airport (SKMD) |
Arrival
| Time | N/A |
|---|---|
| Airport | Enrique Olaya Herrera Airport (SKMD) |
| Time | Latitude | Longitude | Altitude | Speed | Heading |
|---|---|---|---|---|---|
| 2026-05-01 15:05 | 6.21365 | -75.58809 | 4912 ft | 0 kts | 94° |
| 2026-05-01 15:17 | 6.21390 | -75.58806 | 4913 ft | 10 kts | 7° |
| 2026-05-01 15:18 | 6.21460 | -75.59003 | 4907 ft | 17 kts | 279° |
| 2026-05-01 15:18 | 6.21464 | -75.59025 | 4903 ft | 0 kts | 281° |
| 2026-05-01 15:22 | 6.21459 | -75.59067 | 4911 ft | 6 kts | 192° |
| 2026-05-01 15:22 | 6.21415 | -75.59076 | 4912 ft | 10 kts | 191° |
| 2026-05-01 15:22 | 6.21346 | -75.59089 | 4922 ft | 12 kts | 191° |
| 2026-05-01 15:23 | 6.21267 | -75.59104 | 4926 ft | 14 kts | 192° |
| 2026-05-01 15:23 | 6.21200 | -75.59117 | 4931 ft | 6 kts | 192° |
| 2026-05-01 15:23 | 6.21154 | -75.59128 | 4935 ft | 8 kts | 192° |
| 2026-05-01 15:23 | 6.21098 | -75.59137 | 4939 ft | 9 kts | 191° |
| 2026-05-01 15:24 | 6.21036 | -75.59148 | 4945 ft | 9 kts | 191° |
| 2026-05-01 15:24 | 6.20974 | -75.59160 | 4951 ft | 9 kts | 189° |
| 2026-05-01 15:24 | 6.20943 | -75.59169 | 4953 ft | 0 kts | 213° |
| 2026-05-01 15:24 | 6.20942 | -75.59170 | 4954 ft | 2 kts | 214° |
| 2026-05-01 15:25 | 6.20912 | -75.59213 | 4958 ft | 12 kts | 248° |
| 2026-05-01 15:25 | 6.20928 | -75.59257 | 4957 ft | 0 kts | 11° |
| 2026-05-01 15:26 | 6.20941 | -75.59255 | 4956 ft | 15 kts | 11° |
| 2026-05-01 15:26 | 6.21225 | -75.59197 | 4931 ft | 64 kts | 13° |
| 2026-05-01 15:26 | 6.21706 | -75.59104 | 5055 ft | 72 kts | 17° |
| 2026-05-01 15:26 | 6.22219 | -75.59001 | 5196 ft | 78 kts | 15° |
| 2026-05-01 15:27 | 6.22769 | -75.58909 | 5302 ft | 79 kts | 13° |
| 2026-05-01 15:27 | 6.23334 | -75.58819 | 5373 ft | 86 kts | 13° |
| 2026-05-01 15:27 | 6.23879 | -75.58672 | 5498 ft | 77 kts | 40° |
| 2026-05-01 15:28 | 6.24010 | -75.57754 | 5628 ft | 75 kts | 107° |
| 2026-05-01 15:28 | 6.23839 | -75.57262 | 5660 ft | 75 kts | 110° |
| 2026-05-01 15:28 | 6.23656 | -75.56780 | 5735 ft | 75 kts | 111° |
| 2026-05-01 15:29 | 6.23021 | -75.56222 | 5789 ft | 76 kts | 191° |
| 2026-05-01 15:29 | 6.22519 | -75.56392 | 5777 ft | 73 kts | 195° |
| 2026-05-01 15:29 | 6.21541 | -75.56774 | 5804 ft | 80 kts | 192° |
| 2026-05-01 15:30 | 6.20615 | -75.57115 | 5836 ft | 87 kts | 197° |
| 2026-05-01 15:31 | 6.18454 | -75.58625 | 5794 ft | 90 kts | 268° |
| 2026-05-01 15:31 | 6.19058 | -75.59605 | 5626 ft | 79 kts | 352° |
| 2026-05-01 15:32 | 6.20037 | -75.59435 | 5317 ft | 62 kts | 17° |
| 2026-05-01 15:32 | 6.20906 | -75.59261 | 5045 ft | 66 kts | 19° |
| 2026-05-01 15:33 | 6.22138 | -75.59029 | 4886 ft | 62 kts | 16° |
| 2026-05-01 15:34 | 6.23648 | -75.58706 | 5295 ft | 78 kts | 19° |